Latest Weather Observations for Collie East

IDW60801

Issued at 7:02 pm WST Saturday 28 March 2015 (issued every 30 minutes, with the page automatically refreshed every 10 minutes)

About weather observations | Map of weather stations | Latest weather observations for WA | Other Formats
Station Details ID: 009994 Name: COLLIE EAST Lat: -33.36 Lon: 116.17 Height: 200.0 m
Data from the previous 72 hours. | See also: Recent months at Collie East
Date/Time
WST
Temp
°C
App
Temp
°C
Dew
Point
Rel
Hum
%
Delta-T
°C
Wind Press
QNH
hPa
Press
MSL
hPa
Rain
since 9 am
mm
Dir
 
Spd
km/h
Gust
km/h
Spd
kts
Gust
kts
28/07:00pm 20.4 19.7 12.1 59 4.7 WSW 7 11 4 6 - - 0.0
28/06:30pm 21.4 20.4 12.3 56 5.2 W 9 13 5 7 - - 0.0
28/06:00pm 22.9 21.6 9.3 42 7.4 WSW 6 11 3 6 - - 0.0
28/05:30pm 24.2 22.7 9.0 38 8.3 SW 7 15 4 8 - - 0.0
28/05:00pm 24.9 23.2 8.4 35 8.9 SSW 7 13 4 7 - - 0.0
28/04:30pm 25.4 23.3 8.4 34 9.2 NW 9 19 5 10 - - 0.0
28/04:00pm 25.9 23.8 8.4 33 9.5 W 9 15 5 8 - - 0.0
28/03:30pm 26.2 24.6 8.7 33 9.6 SSE 7 15 4 8 - - 0.0
28/03:00pm 26.5 24.8 9.8 35 9.3 WNW 9 15 5 8 - - 0.0
28/02:30pm 25.2 23.5 9.9 38 8.5 NW 9 15 5 8 - - 0.0
28/02:00pm 24.8 23.2 10.3 40 8.1 WNW 9 19 5 10 - - 0.0
28/01:30pm 23.9 22.5 9.5 40 7.9 WNW 7 9 4 5 - - 0.0
28/01:00pm 23.3 22.2 10.7 45 7.0 NNW 7 15 4 8 - - 0.0
28/12:30pm 23.8 22.7 11.8 47 6.8 NW 9 15 5 8 - - 0.0
28/12:00pm 22.6 22.2 11.0 48 6.5 WSW 4 11 2 6 - - 0.0
28/11:30am 22.4 21.5 11.5 50 6.1 ENE 7 11 4 6 - - 0.0
28/11:00am 21.3 20.7 12.4 57 5.1 SW 7 13 4 7 - - 0.0
28/10:30am 21.5 21.2 13.4 60 4.7 SSE 7 11 4 6 - - 0.0
28/10:00am 20.0 19.6 12.3 61 4.3 SE 6 13 3 7 - - 0.0
28/09:30am 19.3 18.5 12.8 66 3.7 SE 9 15 5 8 - - 0.0
28/09:00am 17.9 17.1 13.0 73 2.8 SE 9 15 5 8 - - 0.0
28/08:30am 14.7 15.4 13.4 92 0.7 ESE 2 9 1 5 - - 0.0
28/08:00am 13.3 14.1 12.4 94 0.5 CALM 0 0 0 0 - - 0.0
28/07:30am 11.9 12.2 10.8 93 0.6 CALM 0 0 0 0 - - 0.0
28/07:00am 11.1 11.2 10.0 93 0.6 CALM 0 0 0 0 - - 0.0
28/06:30am 11.0 11.0 9.9 93 0.6 CALM 0 0 0 0 - - 0.0
28/06:00am 10.7 10.6 9.6 93 0.6 CALM 0 0 0 0 - - 0.0
28/05:30am 9.7 9.4 8.5 92 0.6 CALM 0 0 0 0 - - 0.0
28/05:00am 8.6 8.0 7.2 91 0.7 CALM 0 0 0 0 - - 0.0
28/04:30am 8.5 7.8 7.0 90 0.7 CALM 0 0 0 0 - - 0.0
28/04:00am 8.6 7.9 7.1 90 0.7 CALM 0 0 0 0 - - 0.0
28/03:30am 8.8 8.1 7.1 89 0.8 CALM 0 0 0 0 - - 0.0
28/03:00am 9.3 8.7 7.6 89 0.8 CALM 0 0 0 0 - - 0.0
28/02:30am 9.6 9.1 7.7 88 0.9 CALM 0 0 0 0 - - 0.0
28/02:00am 9.8 9.3 7.7 87 1.0 CALM 0 0 0 0 - - 0.0
28/01:30am 10.1 9.6 7.9 86 1.1 CALM 0 0 0 0 - - 0.0
28/01:00am 10.7 10.3 8.3 85 1.2 CALM 0 0 0 0 - - 0.0
28/12:30am 11.1 10.8 8.5 84 1.3 CALM 0 0 0 0 - - 0.0
28/12:00am 11.7 11.4 8.6 81 1.6 CALM 0 0 0 0 - - 0.0
 
Date/Time
WST
Temp
°C
App
Temp
°C
Dew
Point
Rel
Hum
%
Delta-T
°C
Wind Press
QNH
hPa
Press
MSL
hPa
Rain
since 9 am
mm
Dir
 
Spd
km/h
Gust
km/h
Spd
kts
Gust
kts
27/11:30pm 12.0 11.7 8.7 80 1.7 CALM 0 0 0 0 - - 0.0
27/11:00pm 12.7 12.4 8.6 76 2.1 CALM 0 0 0 0 - - 0.0
27/10:30pm 13.5 13.3 9.2 75 2.2 CALM 0 0 0 0 - - 0.0
27/10:00pm 14.3 14.2 9.3 72 2.6 CALM 0 0 0 0 - - 0.0
27/09:30pm 14.9 14.8 9.3 69 2.9 CALM 0 0 0 0 - - 0.0
27/09:00pm 16.2 16.1 9.6 65 3.5 CALM 0 0 0 0 - - 0.0
27/08:30pm 17.1 17.0 9.3 60 4.1 CALM 0 0 0 0 - - 0.0
27/08:00pm 19.1 17.9 9.6 54 5.1 ESE 6 7 3 4 - - 0.0
27/07:30pm 20.0 18.7 9.3 50 5.7 E 6 7 3 4 - - 0.0
27/07:00pm 20.5 19.3 9.7 50 5.8 E 6 9 3 5 - - 0.0
27/06:30pm 22.4 21.7 9.9 45 6.8 NNE 4 9 2 5 - - 0.0
27/06:00pm 23.3 23.0 8.6 39 7.9 CALM 0 0 0 0 - - 0.0
27/05:30pm 24.0 21.7 7.6 35 8.7 ESE 9 13 5 7 - - 0.0
27/05:00pm 24.9 22.7 8.0 34 9.1 ESE 9 15 5 8 - - 0.0
27/04:30pm 25.4 22.6 7.1 31 9.7 ESE 11 19 6 10 - - 0.0
27/04:00pm 26.1 24.0 8.1 32 9.7 SE 9 17 5 9 - - 0.0
27/03:30pm 25.5 23.2 7.6 32 9.6 SSE 9 19 5 10 - - 0.0
27/03:00pm 25.3 22.8 8.3 34 9.2 SE 11 20 6 11 - - 0.0
27/02:30pm 25.4 22.8 9.3 36 8.9 E 13 22 7 12 - - 0.0
27/02:00pm 25.0 22.5 8.1 34 9.1 SE 11 22 6 12 - - 0.0
27/01:30pm 24.3 20.3 8.3 36 8.6 ENE 19 30 10 16 - - 0.0
27/01:00pm 24.1 20.8 8.1 36 8.6 SE 15 26 8 14 - - 0.0
27/12:30pm 23.8 21.2 9.4 40 7.9 ENE 13 22 7 12 - - 0.0
27/12:00pm 24.1 22.1 10.0 41 7.8 E 11 19 6 10 - - 0.0
27/11:30am 23.1 21.1 10.2 44 7.1 ENE 11 17 6 9 - - 0.0
27/11:00am 22.2 20.8 11.0 49 6.3 E 9 17 5 9 - - 0.0
27/10:30am 22.0 20.4 11.4 51 6.0 ENE 11 17 6 9 - - 0.0
27/10:00am 20.3 19.6 12.0 59 4.7 E 7 9 4 5 - - 0.0
27/09:30am 20.2 19.2 12.2 60 4.5 ENE 9 13 5 7 - - 0.0
27/09:00am 18.6 19.2 11.9 65 3.7 CALM 0 0 0 0 - - 0.0
27/08:30am 17.2 17.5 11.0 67 3.4 CALM 0 0 0 0 - - 0.0
27/08:00am 16.2 16.3 10.1 67 3.2 CALM 0 0 0 0 - - 0.0
27/07:30am 15.6 15.6 9.9 69 3.0 CALM 0 0 0 0 - - 0.0
27/07:00am 15.4 15.0 9.7 69 3.0 E 2 6 1 3 - - 0.0
27/06:30am 15.2 15.2 9.8 70 2.8 CALM 0 0 0 0 - - 0.0
27/06:00am 15.0 14.9 9.6 70 2.8 CALM 0 0 0 0 - - 0.0
27/05:30am 15.3 15.3 9.7 69 2.9 CALM 0 0 0 0 - - 0.0
27/05:00am 15.2 14.8 9.6 69 2.9 SE 2 6 1 3 - - 0.0
27/04:30am 15.1 15.0 9.5 69 2.9 CALM 0 0 0 0 - - 0.0
27/04:00am 15.5 15.5 9.8 69 3.0 CALM 0 0 0 0 - - 0.0
27/03:30am 16.1 16.0 9.3 64 3.6 CALM 0 0 0 0 - - 0.0
27/03:00am 16.2 16.0 9.2 63 3.7 CALM 0 0 0 0 - - 0.0
27/02:30am 16.3 16.2 9.3 63 3.7 CALM 0 0 0 0 - - 0.0
27/02:00am 16.3 16.0 8.5 60 4.0 CALM 0 0 0 0 - - 0.0
27/01:30am 17.0 16.7 8.7 58 4.3 CALM 0 0 0 0 - - 0.0
27/01:00am 17.0 16.7 8.7 58 4.3 CALM 0 0 0 0 - - 0.0
27/12:30am 17.3 16.9 8.4 56 4.6 CALM 0 0 0 0 - - 0.0
27/12:00am 17.6 16.8 8.2 54 4.9 SSE 2 7 1 4 - - 0.0
 
Date/Time
WST
Temp
°C
App
Temp
°C
Dew
Point
Rel
Hum
%
Delta-T
°C
Wind Press
QNH
hPa
Press
MSL
hPa
Rain
since 9 am
mm
Dir
 
Spd
km/h
Gust
km/h
Spd
kts
Gust
kts
26/11:30pm 18.6 15.9 7.4 48 5.7 W 11 24 6 13 - - 0.0
26/11:00pm 16.9 16.5 8.3 57 4.4 CALM 0 6 0 3 - - 0.0
26/10:30pm 17.1 16.6 8.0 55 4.7 CALM 0 0 0 0 - - 0.0
26/10:00pm 16.6 16.2 8.1 57 4.4 CALM 0 0 0 0 - - 0.0
26/09:30pm 17.2 16.6 7.5 53 4.9 CALM 0 0 0 0 - - 0.0
26/09:00pm 18.3 17.8 8.0 51 5.3 CALM 0 0 0 0 - - 0.0
26/08:30pm 19.0 17.4 7.8 48 5.8 SE 6 7 3 4 - - 0.0
26/08:00pm 20.1 18.1 7.1 43 6.7 ESE 7 9 4 5 - - 0.0
26/07:30pm 20.9 18.8 6.8 40 7.2 ESE 7 9 4 5 - - 0.0
26/07:00pm 22.1 19.8 5.9 35 8.2 ESE 7 9 4 5 - - 0.0
26/06:30pm 23.6 21.3 5.5 31 9.2 ESE 7 9 4 5 - - 0.0
26/06:00pm 25.3 22.5 5.0 27 10.4 ESE 9 15 5 8 - - 0.0
26/05:30pm 26.5 23.3 4.9 25 11.1 E 11 22 6 12 - - 0.0
26/05:00pm 26.9 23.6 4.6 24 11.4 E 11 17 6 9 - - 0.0
26/04:30pm 27.1 23.8 4.8 24 11.5 E 11 17 6 9 - - 0.0
26/04:00pm 27.3 23.6 4.4 23 11.7 NNE 13 19 7 10 - - 0.0
26/03:30pm 27.7 24.0 4.7 23 11.8 E 13 28 7 15 - - 0.0
26/03:00pm 27.6 24.2 5.8 25 11.4 ENE 13 24 7 13 - - 0.0
26/02:30pm 27.5 24.2 6.3 26 11.2 ENE 13 26 7 14 - - 0.0
26/02:00pm 27.5 24.7 5.1 24 11.6 NE 9 15 5 8 - - 0.0
26/01:30pm 26.8 24.0 6.8 28 10.6 E 11 20 6 11 - - 0.0
26/01:00pm 26.0 23.2 8.5 33 9.5 ESE 13 26 7 14 - - 0.0
26/12:30pm 25.7 23.5 9.5 36 9.0 E 11 24 6 13 - - 0.0
26/12:00pm 24.6 22.5 9.7 39 8.2 ENE 11 19 6 10 - - 0.0
26/11:30am 23.6 20.7 9.6 41 7.7 ENE 15 24 8 13 - - 0.0
26/11:00am 22.2 19.2 9.4 44 6.9 NE 15 20 8 11 - - 0.0
26/10:30am 21.1 18.6 9.7 48 6.2 E 13 24 7 13 - - 0.0
26/10:00am 20.2 18.0 9.5 50 5.7 E 11 17 6 9 - - 0.0
26/09:30am 18.7 16.6 9.8 56 4.8 E 11 20 6 11 - - 0.0
26/09:00am 17.6 15.0 9.5 59 4.3 ESE 13 20 7 11 - - 0.0
26/08:30am 16.2 14.1 9.6 65 3.5 ESE 11 19 6 10 - - 0.0
26/08:00am 14.9 13.1 9.5 70 2.8 ESE 9 13 5 7 - - 0.0
26/07:30am 13.3 11.8 9.2 76 2.1 ESE 7 13 4 7 - - 0.0
26/07:00am 12.0 10.7 9.2 83 1.4 SE 6 9 3 5 - - 0.0
26/06:30am 11.2 9.8 8.8 85 1.2 ESE 6 9 3 5 - - 0.0
26/06:00am 11.4 9.9 8.6 83 1.4 SE 6 7 3 4 - - 0.0
26/05:30am 12.2 10.6 8.9 80 1.7 SE 7 11 4 6 - - 0.0
26/05:00am 12.6 11.1 9.2 80 1.7 ESE 7 9 4 5 - - 0.0
26/04:30am 12.9 11.5 9.4 79 1.8 ESE 7 11 4 6 - - 0.0
26/04:00am 13.2 11.8 9.6 79 1.9 ESE 7 13 4 7 - - 0.0
26/03:30am 13.5 12.1 9.6 77 2.0 ESE 7 13 4 7 - - 0.0
26/03:00am 14.0 12.3 9.8 76 2.2 ESE 9 19 5 10 - - 0.0
26/02:30am 14.3 12.2 9.9 75 2.3 E 11 20 6 11 - - 0.0
26/02:00am 14.6 12.9 9.8 73 2.5 E 9 15 5 8 - - 0.0
26/01:30am 14.8 13.1 10.0 73 2.5 ESE 9 15 5 8 - - 0.0
26/01:00am 15.0 13.3 10.0 72 2.6 ESE 9 17 5 9 - - 0.0
26/12:30am 15.1 13.5 10.1 72 2.6 ESE 9 17 5 9 - - 0.0
26/12:00am 15.3 13.7 10.3 72 2.7 E 9 17 5 9 - - 0.0
 
Date/Time
WST
Temp
°C
App
Temp
°C
Dew
Point
Rel
Hum
%
Delta-T
°C
Wind Press
QNH
hPa
Press
MSL
hPa
Rain
since 9 am
mm
Dir
 
Spd
km/h
Gust
km/h
Spd
kts
Gust
kts
25/11:30pm 15.3 13.0 10.3 72 2.7 E 13 28 7 15 - - 0.0
25/11:00pm 15.5 13.6 10.5 72 2.7 E 11 20 6 11 - - 0.0
25/10:30pm 15.9 13.7 10.9 72 2.7 E 13 24 7 13 - - 0.0
25/10:00pm 16.3 14.2 11.0 71 2.9 ESE 13 30 7 16 - - 0.0
25/09:30pm 16.7 14.2 11.2 70 3.0 ESE 15 32 8 17 - - 0.0
25/09:00pm 17.2 14.7 11.2 68 3.3 ESE 15 28 8 15 - - 0.0
25/08:30pm 17.8 15.7 11.1 65 3.7 ESE 13 24 7 13 - - 0.0
25/08:00pm 18.7 16.2 11.0 61 4.2 ESE 15 30 8 16 - - 0.0
25/07:30pm 19.6 17.1 10.9 57 4.8 ESE 15 28 8 15 - - 0.0

Other Formats:

Comma delimited format used in spreadsheet applications
http://www.bom.gov.au/fwo/IDW60801/IDW60801.95621.axf

JavaScript Object Notation format (JSON) in row-major order
http://www.bom.gov.au/fwo/IDW60801/IDW60801.95621.json